Time;durP1;ratioP1;P1;durP2;ratioP2;P2;SDS_P1;SDS_P2;PMS_P1;PMS_P2;Temp;Humidity;BMP_temperature;BMP_pressure;BME280_temperature;BME280_humidity;BME280_pressure;Samples;Min_cycle;Max_cycle;Signal;HPM_P1;HPM_P2
2022/09/22 00:02:48;;;;;;;8.30;4.27;;;;;4.70;96997.00;;;;8365048;28;20222;-65
2022/09/22 00:06:52;;;;;;;4.97;3.77;;;;;4.70;96993.00;;;;8382923;28;20227;-65
2022/09/22 00:11:04;;;;;;;5.57;4.23;;;;;4.70;96990.00;;;;8364355;28;20238;-65
2022/09/22 00:15:14;;;;;;;6.00;3.90;;;;;4.60;97001.00;;;;8383099;28;20220;-65
2022/09/22 00:19:20;;;;;;;7.57;4.30;;;;;4.50;96997.00;;;;8382699;28;20243;-65
2022/09/22 00:23:31;;;;;;;6.03;3.90;;;;;4.60;97009.00;;;;8359581;28;20224;-65
2022/09/22 00:27:41;;;;;;;9.20;4.30;;;;;4.50;97004.00;;;;8376707;28;20656;-65
2022/09/22 00:31:51;;;;;;;7.53;4.17;;;;;4.40;97003.00;;;;8355337;28;20234;-65
2022/09/22 00:36:16;;;;;;;5.93;4.33;;;;;4.40;97000.00;;;;8377106;28;20223;-65
2022/09/22 00:40:27;;;;;;;9.83;4.53;;;;;4.40;96996.00;;;;8363382;28;20237;-65
2022/09/22 00:44:40;;;;;;;7.50;3.87;;;;;4.40;96993.00;;;;8382447;28;20225;-65
2022/09/22 00:48:55;;;;;;;6.47;3.90;;;;;4.40;96993.00;;;;8376694;28;20226;-65
2022/09/22 00:53:02;;;;;;;5.40;4.20;;;;;4.40;96990.00;;;;8364172;28;20228;-65
2022/09/22 00:57:17;;;;;;;5.50;3.67;;;;;4.40;96992.00;;;;8376647;28;20604;-65
2022/09/22 01:01:27;;;;;;;6.73;3.50;;;;;4.30;96986.00;;;;8363818;28;20222;-65
2022/09/22 01:05:32;;;;;;;6.50;3.37;;;;;4.30;96980.00;;;;8381526;28;20241;-64
2022/09/22 01:09:42;;;;;;;8.83;4.60;;;;;4.30;96983.00;;;;8371072;28;20234;-65
2022/09/22 01:14:01;;;;;;;9.17;4.03;;;;;4.30;96978.00;;;;8383114;28;20227;-65
2022/09/22 01:18:19;;;;;;;6.30;3.40;;;;;4.30;96969.00;;;;8375785;28;20228;-65
2022/09/22 01:22:45;;;;;;;3.83;3.43;;;;;4.20;96973.00;;;;8363267;28;20232;-65
2022/09/22 01:27:54;;;;;;;6.90;3.30;;;;;4.20;96974.00;;;;8380568;28;20223;-65
2022/09/22 01:32:20;;;;;;;4.17;3.30;;;;;4.20;96971.00;;;;8368077;28;20667;-64
2022/09/22 01:36:43;;;;;;;4.83;3.57;;;;;4.20;96974.00;;;;8361260;28;20218;-64
2022/09/22 01:40:58;;;;;;;11.17;3.50;;;;;4.20;96969.00;;;;8362606;28;20691;-64
2022/09/22 01:45:10;;;;;;;6.20;3.50;;;;;4.10;96969.00;;;;8368440;28;20285;-64
2022/09/22 01:49:17;;;;;;;4.13;3.40;;;;;4.00;96979.00;;;;8380631;28;20235;-64
2022/09/22 01:53:32;;;;;;;5.37;3.90;;;;;4.00;96974.00;;;;8362388;28;20676;-64
2022/09/22 01:57:51;;;;;;;4.80;3.60;;;;;4.00;96969.00;;;;8351160;28;20218;-64
2022/09/22 02:02:04;;;;;;;4.07;3.13;;;;;3.90;96968.00;;;;8362488;28;20217;-64
2022/09/22 02:06:20;;;;;;;6.87;3.50;;;;;3.90;96972.00;;;;8375051;28;20234;-64
2022/09/22 02:10:35;;;;;;;4.30;3.80;;;;;3.90;96971.00;;;;8370127;28;20690;-64
2022/09/22 02:14:45;;;;;;;5.67;3.30;;;;;3.90;96957.00;;;;8378563;28;20305;-63
2022/09/22 02:18:59;;;;;;;8.37;4.13;;;;;3.90;96950.00;;;;8380859;28;20226;-64
2022/09/22 02:23:17;;;;;;;4.83;3.47;;;;;3.90;96947.00;;;;8368614;28;20273;-63
2022/09/22 02:27:35;;;;;;;4.73;3.37;;;;;4.00;96948.00;;;;8385610;28;20716;-63
2022/09/22 02:31:45;;;;;;;11.30;4.63;;;;;4.00;96954.00;;;;8372063;28;20222;-63
2022/09/22 02:36:08;;;;;;;5.43;3.90;;;;;4.00;96947.00;;;;8386156;28;20221;-63
2022/09/22 02:40:27;;;;;;;7.60;3.50;;;;;3.90;96944.00;;;;8367056;28;20245;-63
2022/09/22 02:44:46;;;;;;;4.30;3.60;;;;;3.80;96936.00;;;;8377949;28;20225;-64
2022/09/22 02:48:58;;;;;;;3.93;3.20;;;;;3.80;96946.00;;;;8379779;28;20223;-63
2022/09/22 02:53:04;;;;;;;5.00;3.67;;;;;3.70;96947.00;;;;8367387;28;20230;-64
2022/09/22 02:57:15;;;;;;;8.63;3.83;;;;;3.60;96952.00;;;;8380522;28;20240;-64
2022/09/22 03:01:18;;;;;;;6.97;3.63;;;;;3.60;96944.00;;;;8366891;28;20237;-63
2022/09/22 03:05:28;;;;;;;5.87;3.60;;;;;3.60;96936.00;;;;8385418;28;20264;-63
2022/09/22 03:09:38;;;;;;;5.33;3.40;;;;;3.60;96933.00;;;;8384922;28;20234;-64
2022/09/22 03:13:42;;;;;;;8.70;3.67;;;;;3.60;96930.00;;;;8361968;28;20690;-63
2022/09/22 03:17:52;;;;;;;9.33;3.67;;;;;3.50;96934.00;;;;8370220;28;20236;-63
2022/09/22 03:22:02;;;;;;;5.93;3.67;;;;;3.50;96921.00;;;;8367272;28;20228;-63
2022/09/22 03:26:12;;;;;;;7.53;3.20;;;;;3.50;96917.00;;;;8374366;28;20228;-63
2022/09/22 03:30:23;;;;;;;7.77;3.87;;;;;3.50;96923.00;;;;8365509;28;20236;-63
2022/09/22 03:34:26;;;;;;;6.37;3.57;;;;;3.50;96923.00;;;;8383738;28;20220;-63
2022/09/22 03:38:36;;;;;;;9.90;4.27;;;;;3.50;96932.00;;;;8378024;28;20555;-63
2022/09/22 03:42:46;;;;;;;8.27;3.93;;;;;3.50;96923.00;;;;8351316;28;20233;-63
2022/09/22 03:46:50;;;;;;;6.23;3.80;;;;;3.50;96928.00;;;;8382666;28;20221;-64
2022/09/22 03:51:00;;;;;;;5.23;3.43;;;;;3.40;96923.00;;;;8365119;28;20232;-63
2022/09/22 03:55:10;;;;;;;5.83;3.97;;;;;3.40;96921.00;;;;8370537;28;20664;-64
2022/09/22 03:59:20;;;;;;;5.90;3.53;;;;;3.40;96923.00;;;;8381386;28;20231;-63
2022/09/22 04:03:31;;;;;;;8.63;3.67;;;;;3.40;96924.00;;;;8365104;28;20223;-64
2022/09/22 04:07:35;;;;;;;4.27;3.70;;;;;3.50;96930.00;;;;8376813;28;20217;-64
2022/09/22 04:11:45;;;;;;;6.53;3.90;;;;;3.50;96921.00;;;;8364579;28;20226;-64
2022/09/22 04:15:55;;;;;;;6.03;3.63;;;;;3.50;96929.00;;;;8382275;28;20613;-64
2022/09/22 04:20:08;;;;;;;5.43;3.57;;;;;3.50;96927.00;;;;8358212;28;20270;-64
2022/09/22 04:24:18;;;;;;;10.03;4.97;;;;;3.50;96921.00;;;;8383044;28;20231;-63
2022/09/22 04:28:21;;;;;;;5.50;3.87;;;;;3.60;96916.00;;;;8377055;28;20574;-63
2022/09/22 04:32:31;;;;;;;5.43;3.97;;;;;3.60;96920.00;;;;8362905;28;20234;-63
2022/09/22 04:36:49;;;;;;;5.70;3.37;;;;;3.60;96926.00;;;;8382252;28;20273;-63
2022/09/22 04:41:00;;;;;;;3.90;3.50;;;;;3.60;96931.00;;;;8362904;28;20234;-63
2022/09/22 04:45:10;;;;;;;8.13;3.90;;;;;3.50;96929.00;;;;8365665;28;20260;-64
2022/09/22 04:49:20;;;;;;;5.37;3.13;;;;;3.40;96925.00;;;;8370736;28;20238;-63
2022/09/22 04:53:24;;;;;;;8.40;4.10;;;;;3.40;96929.00;;;;8360225;28;20224;-66
2022/09/22 04:57:34;;;;;;;4.63;3.57;;;;;3.40;96929.00;;;;8376253;28;20224;-65
2022/09/22 05:01:44;;;;;;;4.40;3.47;;;;;3.40;96936.00;;;;8364126;28;20560;-65
2022/09/22 05:05:54;;;;;;;7.77;4.60;;;;;3.50;96934.00;;;;8382010;28;20225;-64
2022/09/22 05:09:58;;;;;;;6.13;4.27;;;;;3.50;96933.00;;;;8357709;28;20225;-64
2022/09/22 05:14:08;;;;;;;8.20;4.23;;;;;3.50;96933.00;;;;8382052;28;20226;-65
2022/09/22 05:18:11;;;;;;;6.13;4.47;;;;;3.50;96935.00;;;;8375965;28;20226;-65
2022/09/22 05:22:21;;;;;;;7.90;4.47;;;;;3.60;96933.00;;;;8368567;28;20253;-64
2022/09/22 05:26:32;;;;;;;14.00;5.30;;;;;3.60;96932.00;;;;8369033;28;20216;-65
2022/09/22 05:30:43;;;;;;;4.43;3.60;;;;;3.70;96932.00;;;;8363022;28;20278;-65
2022/09/22 05:34:46;;;;;;;6.53;4.07;;;;;3.80;96938.00;;;;8381983;28;20235;-65
2022/09/22 05:38:56;;;;;;;4.33;3.93;;;;;3.80;96933.00;;;;8375810;28;20224;-65
2022/09/22 05:43:07;;;;;;;8.27;4.20;;;;;3.80;96937.00;;;;8362954;28;20554;-66
2022/09/22 05:47:17;;;;;;;7.53;4.20;;;;;3.90;96949.00;;;;8378523;28;20580;-65
2022/09/22 05:51:20;;;;;;;4.77;3.90;;;;;4.00;96946.00;;;;8368903;28;20592;-64
2022/09/22 05:55:30;;;;;;;6.60;4.13;;;;;4.20;96947.00;;;;8386653;28;20223;-64
2022/09/22 05:59:41;;;;;;;6.83;4.57;;;;;4.30;96951.00;;;;8387193;28;20623;-65
2022/09/22 06:03:51;;;;;;;9.00;4.63;;;;;4.50;96949.00;;;;8359407;28;20325;-63
2022/09/22 06:08:02;;;;;;;7.90;4.20;;;;;4.70;96955.00;;;;8386616;28;20541;-63
2022/09/22 06:12:12;;;;;;;15.00;4.90;;;;;4.90;96946.00;;;;8374211;28;20230;-63
2022/09/22 06:16:16;;;;;;;12.73;4.73;;;;;5.20;96951.00;;;;8381567;28;20269;-63
2022/09/22 06:20:26;;;;;;;12.37;5.40;;;;;5.40;96953.00;;;;8366936;28;20227;-63
2022/09/22 06:24:36;;;;;;;8.43;5.40;;;;;5.70;96954.00;;;;8383477;28;20227;-63
2022/09/22 06:28:39;;;;;;;19.23;10.17;;;;;5.90;96945.00;;;;8389855;28;20220;-62
2022/09/22 06:33:00;;;;;;;13.40;8.40;;;;;6.30;96959.00;;;;8354276;28;20231;-63
2022/09/22 06:37:09;;;;;;;12.00;5.37;;;;;6.60;96958.00;;;;8345787;28;20219;-63
2022/09/22 06:41:19;;;;;;;11.80;6.07;;;;;6.90;96956.00;;;;8334381;28;20293;-63
2022/09/22 06:45:30;;;;;;;13.53;7.87;;;;;7.20;96963.00;;;;8354159;28;20224;-63
2022/09/22 06:49:41;;;;;;;12.50;6.93;;;;;7.40;96960.00;;;;8353426;28;20298;-63
2022/09/22 06:53:51;;;;;;;10.77;6.83;;;;;7.50;96963.00;;;;8326698;28;20298;-63
2022/09/22 06:58:01;;;;;;;14.37;7.60;;;;;7.70;96967.00;;;;8352420;28;20713;-64
2022/09/22 07:02:06;;;;;;;16.30;7.30;;;;;7.90;96966.00;;;;8340056;28;20240;-65
2022/09/22 07:06:17;;;;;;;12.00;6.00;;;;;8.10;96967.00;;;;8347861;28;20244;-66
2022/09/22 07:10:27;;;;;;;9.17;6.87;;;;;8.30;96967.00;;;;8333326;28;20293;-66
2022/09/22 07:14:31;;;;;;;11.60;5.30;;;;;8.50;96970.00;;;;8352520;28;20684;-66
2022/09/22 07:18:42;;;;;;;7.43;5.43;;;;;8.70;96971.00;;;;8345669;28;20250;-66
2022/09/22 07:22:59;;;;;;;11.23;6.00;;;;;8.80;96968.00;;;;8333287;28;20217;-66
2022/09/22 07:27:09;;;;;;;9.63;5.97;;;;;9.00;96976.00;;;;8345136;28;20221;-67
2022/09/22 07:31:15;;;;;;;8.93;5.50;;;;;9.20;96971.00;;;;8332308;28;20216;-67
2022/09/22 07:35:30;;;;;;;6.97;5.47;;;;;9.30;96973.00;;;;8351669;28;20244;-67
2022/09/22 07:39:44;;;;;;;7.03;4.73;;;;;9.40;96968.00;;;;8350395;28;20243;-66
2022/09/22 07:45:11;;;;;;;6.17;4.23;;;;;9.50;96963.00;;;;8324317;28;20228;-67
2022/09/22 07:48:41;;;;;;;5.17;3.80;;;;;9.60;96973.00;;;;8344009;28;20231;-67
2022/09/22 07:52:51;;;;;;;8.67;3.80;;;;;9.80;96969.00;;;;8331700;28;20230;-67
2022/09/22 07:57:09;;;;;;;4.33;3.70;;;;;10.00;96975.00;;;;8348298;28;20221;-67
2022/09/22 08:01:13;;;;;;;7.07;4.03;;;;;10.30;96975.00;;;;8330146;28;20233;-67
2022/09/22 08:05:24;;;;;;;5.72;3.53;;;;;10.60;96980.00;;;;8350115;28;20281;-67
2022/09/22 08:09:34;;;;;;;4.75;3.28;;;;;10.90;96982.00;;;;8348813;28;20224;-67
2022/09/22 08:13:39;;;;;;;8.40;3.45;;;;;11.00;96975.00;;;;8331318;28;20235;-67
2022/09/22 08:17:49;;;;;;;3.53;3.22;;;;;11.10;96980.00;;;;8335318;28;20221;-68
2022/09/22 08:21:59;;;;;;;4.22;3.20;;;;;11.40;96981.00;;;;8331031;28;20213;-67
2022/09/22 08:26:09;;;;;;;6.40;3.22;;;;;11.80;96982.00;;;;8344203;28;20529;-67
2022/09/22 08:30:20;;;;;;;3.40;3.10;;;;;12.10;96978.00;;;;8331193;28;20269;-67
2022/09/22 08:34:36;;;;;;;5.30;3.10;;;;;12.60;96991.00;;;;8368564;28;20232;-68
2022/09/22 08:38:39;;;;;;;6.22;3.17;;;;;13.10;96983.00;;;;8376320;28;20225;-68
2022/09/22 08:42:49;;;;;;;3.67;3.38;;;;;13.50;96977.00;;;;8359053;28;20277;-68
2022/09/22 08:47:02;;;;;;;5.03;3.00;;;;;14.00;96978.00;;;;8387048;28;20648;-68
2022/09/22 08:55:42;;;;;;;3.42;2.83;;;;;14.90;96983.00;;;;8382366;28;20577;-70
2022/09/22 08:59:59;;;;;;;4.32;2.92;;;;;15.10;96979.00;;;;8358559;28;20287;-68
2022/09/22 09:04:50;;;;;;;4.22;3.00;;;;;15.40;96976.00;;;;8382976;28;20230;-69
2022/09/22 09:09:29;;;;;;;3.33;2.88;;;;;15.90;96982.00;;;;8376449;28;20246;-70
2022/09/22 09:13:50;;;;;;;3.90;2.92;;;;;16.10;96966.00;;;;8366195;28;20277;-69
2022/09/22 09:18:05;;;;;;;4.93;2.83;;;;;16.80;96984.00;;;;8371803;28;20208;-68
2022/09/22 09:22:17;;;;;;;4.68;2.70;;;;;17.60;96975.00;;;;8373680;28;20224;-68
2022/09/22 09:26:28;;;;;;;4.50;2.50;;;;;17.70;96981.00;;;;8377561;28;20641;-67
2022/09/22 09:30:44;;;;;;;4.25;2.28;;;;;17.80;96974.00;;;;8373205;28;20228;-66
2022/09/22 09:35:08;;;;;;;4.20;2.58;;;;;18.00;96969.00;;;;8387323;28;20224;-66
2022/09/22 09:39:15;;;;;;;6.15;2.60;;;;;18.00;96977.00;;;;8388365;28;20611;-66
2022/09/22 09:43:28;;;;;;;3.30;1.98;;;;;18.10;96981.00;;;;8372585;28;20314;-66
2022/09/22 09:48:03;;;;;;;3.13;2.15;;;;;18.60;96983.00;;;;8382556;28;20220;-66
2022/09/22 09:52:14;;;;;;;2.60;2.40;;;;;19.10;96971.00;;;;8376610;28;20319;-66
2022/09/22 09:56:28;;;;;;;2.95;2.72;;;;;19.40;96972.00;;;;8377052;28;20665;-66
2022/09/22 10:00:56;;;;;;;2.75;2.55;;;;;20.00;96971.00;;;;8371867;28;20212;-67
2022/09/22 10:05:17;;;;;;;2.58;2.38;;;;;20.40;96967.00;;;;8376646;28;20665;-66
2022/09/22 10:09:29;;;;;;;2.25;2.05;;;;;20.40;96969.00;;;;8387088;28;20216;-67
2022/09/22 10:13:42;;;;;;;2.35;2.15;;;;;20.30;96971.00;;;;8370522;28;20224;-67
2022/09/22 10:17:52;;;;;;;3.80;2.25;;;;;20.40;96962.00;;;;8375962;28;20549;-67
2022/09/22 10:22:25;;;;;;;4.50;2.05;;;;;20.10;96970.00;;;;8370901;28;20220;-68
2022/09/22 10:26:54;;;;;;;4.35;2.40;;;;;20.10;96967.00;;;;8375715;28;20220;-67
2022/09/22 10:31:20;;;;;;;1.90;1.80;;;;;20.30;96961.00;;;;8385906;28;20719;-68
2022/09/22 10:35:36;;;;;;;2.95;2.50;;;;;20.50;96959.00;;;;8386188;28;20619;-67
2022/09/22 10:39:49;;;;;;;2.90;2.05;;;;;20.70;96962.00;;;;8359361;28;20228;-69
2022/09/22 10:44:00;;;;;;;2.33;2.22;;;;;20.90;96954.00;;;;8382129;28;20224;-67
2022/09/22 10:48:41;;;;;;;8.07;2.65;;;;;20.80;96952.00;;;;8379336;28;20227;-67
2022/09/22 10:52:53;;;;;;;3.22;1.92;;;;;21.10;96951.00;;;;8366277;28;20220;-67
2022/09/22 10:57:09;;;;;;;2.67;2.20;;;;;21.40;96956.00;;;;8382038;28;20277;-68
2022/09/22 11:01:33;;;;;;;3.70;2.35;;;;;21.00;96951.00;;;;8365783;28;20277;-67
2022/09/22 11:15:15;;;;;;;6.10;2.90;;;;;20.50;96954.00;;;;8361929;28;20243;-65
2022/09/22 11:19:36;;;;;;;2.67;2.47;;;;;20.30;96940.00;;;;8382751;28;20235;-65
2022/09/22 11:24:12;;;;;;;2.30;2.20;;;;;20.40;96939.00;;;;8355856;28;20560;-67
2022/09/22 11:28:41;;;;;;;3.40;2.63;;;;;20.00;96945.00;;;;8378371;28;20220;-66
2022/09/22 11:33:32;;;;;;;4.20;2.75;;;;;19.50;96943.00;;;;8366202;28;20310;-67
2022/09/22 11:38:00;;;;;;;2.45;2.30;;;;;19.30;96932.00;;;;8377860;28;20220;-67
2022/09/22 11:42:20;;;;;;;2.35;2.17;;;;;19.30;96927.00;;;;8370526;28;20224;-67
2022/09/22 11:46:41;;;;;;;5.25;2.25;;;;;18.90;96925.00;;;;8365934;28;20224;-67
2022/09/22 11:51:02;;;;;;;2.80;2.60;;;;;18.50;96918.00;;;;8364890;28;20235;-67
2022/09/22 11:55:18;;;;;;;5.05;2.97;;;;;18.00;96926.00;;;;8369218;28;20800;-67
2022/09/22 11:59:32;;;;;;;5.32;2.50;;;;;17.90;96924.00;;;;8374082;28;20247;-67
2022/09/22 12:03:47;;;;;;;3.78;2.33;;;;;17.90;96916.00;;;;8380885;28;20220;-68
2022/09/22 12:07:55;;;;;;;4.28;2.30;;;;;18.10;96905.00;;;;8394767;28;20227;-66
2022/09/22 12:12:11;;;;;;;2.45;2.00;;;;;18.10;96912.00;;;;8394536;28;20379;-67
2022/09/22 12:16:23;;;;;;;2.20;2.00;;;;;18.20;96911.00;;;;8392223;28;20262;-67
2022/09/22 12:20:45;;;;;;;2.35;2.15;;;;;18.30;96906.00;;;;8385483;28;20215;-67
2022/09/22 12:24:49;;;;;;;2.85;2.30;;;;;18.60;96904.00;;;;8403107;28;20220;-66
2022/09/22 12:29:00;;;;;;;4.03;2.22;;;;;18.70;96892.00;;;;8394371;28;20228;-66
2022/09/22 12:33:05;;;;;;;1.90;1.80;;;;;19.00;96893.00;;;;8393632;28;21073;-66
2022/09/22 12:37:26;;;;;;;2.22;2.13;;;;;18.90;96888.00;;;;8394213;28;20285;-67
2022/09/22 12:41:30;;;;;;;4.22;2.30;;;;;18.70;96891.00;;;;8394700;28;20266;-66
2022/09/22 12:45:43;;;;;;;4.82;2.13;;;;;18.50;96890.00;;;;8414127;28;20667;-66
2022/09/22 12:49:53;;;;;;;3.58;1.80;;;;;18.40;96887.00;;;;8395410;28;20243;-65
2022/09/22 12:54:27;;;;;;;4.88;1.73;;;;;18.10;96890.00;;;;8393507;28;20218;-65
2022/09/22 12:58:42;;;;;;;1.55;1.55;;;;;17.90;96880.00;;;;8394309;28;20216;-65
2022/09/22 13:02:57;;;;;;;4.10;1.60;;;;;17.80;96874.00;;;;8393215;28;20251;-65
2022/09/22 13:07:02;;;;;;;1.67;1.58;;;;;17.80;96874.00;;;;8394429;28;20228;-64
2022/09/22 13:11:12;;;;;;;2.03;1.80;;;;;17.60;96871.00;;;;8394532;28;20273;-64
2022/09/22 13:15:19;;;;;;;3.08;1.40;;;;;17.60;96870.00;;;;8394457;28;20224;-64
2022/09/22 13:19:22;;;;;;;1.95;1.85;;;;;17.50;96863.00;;;;8394485;28;20215;-64
2022/09/22 13:23:27;;;;;;;2.20;2.00;;;;;17.50;96862.00;;;;8393544;28;20744;-65
2022/09/22 13:27:30;;;;;;;2.47;2.28;;;;;17.60;96859.00;;;;8394465;28;20231;-65
2022/09/22 13:31:42;;;;;;;4.95;2.05;;;;;17.50;96865.00;;;;8416166;28;20216;-65
2022/09/22 13:36:02;;;;;;;2.58;2.38;;;;;17.40;96857.00;;;;8392253;28;20236;-65
2022/09/22 13:40:10;;;;;;;3.30;2.60;;;;;17.30;96859.00;;;;8392442;28;20234;-65
2022/09/22 13:44:15;;;;;;;2.63;2.50;;;;;17.20;96862.00;;;;8393311;28;20318;-65
2022/09/22 13:48:19;;;;;;;2.35;2.03;;;;;17.20;96853.00;;;;8390644;28;20219;-66
2022/09/22 13:52:26;;;;;;;2.38;1.95;;;;;17.10;96857.00;;;;8393186;28;20216;-66
2022/09/22 13:56:31;;;;;;;2.00;1.88;;;;;17.10;96843.00;;;;8389946;28;20224;-66
2022/09/22 14:00:41;;;;;;;3.17;2.00;;;;;17.50;96845.00;;;;8394420;28;20265;-66
2022/09/22 14:05:08;;;;;;;2.22;1.80;;;;;18.10;96838.00;;;;8393297;28;20569;-65
2022/09/22 14:09:18;;;;;;;2.45;1.80;;;;;18.70;96832.00;;;;8397357;28;20220;-66
2022/09/22 14:13:39;;;;;;;3.80;1.85;;;;;19.10;96833.00;;;;8396065;28;20603;-67
2022/09/22 14:17:43;;;;;;;2.00;1.73;;;;;19.50;96831.00;;;;8398016;28;20232;-66
2022/09/22 14:21:50;;;;;;;1.90;1.80;;;;;19.80;96823.00;;;;8397946;28;20219;-69
2022/09/22 14:25:54;;;;;;;4.25;1.70;;;;;20.00;96819.00;;;;8397911;28;20295;-67
2022/09/22 14:30:14;;;;;;;4.38;1.75;;;;;20.20;96819.00;;;;8399831;28;20216;-66
2022/09/22 14:34:23;;;;;;;2.63;2.05;;;;;20.40;96814.00;;;;8398005;28;20216;-67
2022/09/22 14:38:38;;;;;;;1.83;1.73;;;;;20.50;96808.00;;;;8397892;28;20216;-67
2022/09/22 14:42:56;;;;;;;1.77;1.67;;;;;20.50;96805.00;;;;8386119;28;20220;-65
2022/09/22 14:47:08;;;;;;;2.90;1.75;;;;;20.40;96804.00;;;;8398386;28;20711;-67
2022/09/22 14:51:19;;;;;;;1.92;1.63;;;;;20.60;96809.00;;;;8394208;28;20242;-67
2022/09/22 14:55:34;;;;;;;2.72;1.70;;;;;20.70;96799.00;;;;8396921;28;20216;-65
2022/09/22 15:04:14;;;;;;;4.22;2.05;;;;;20.70;96799.00;;;;8395262;28;20272;-65
2022/09/22 15:08:21;;;;;;;1.90;1.80;;;;;20.70;96806.00;;;;8398101;28;20223;-65
2022/09/22 15:12:38;;;;;;;2.35;1.60;;;;;20.70;96801.00;;;;8396920;28;20253;-65
2022/09/22 15:16:42;;;;;;;2.13;1.88;;;;;20.80;96797.00;;;;8397639;28;20228;-65
2022/09/22 15:20:49;;;;;;;1.95;1.80;;;;;20.80;96795.00;;;;8396936;28;20220;-66
2022/09/22 15:24:52;;;;;;;2.72;1.70;;;;;21.00;96801.00;;;;8394788;28;20277;-65
2022/09/22 15:28:58;;;;;;;1.40;1.40;;;;;21.20;96794.00;;;;8396977;28;20235;-65
2022/09/22 15:33:09;;;;;;;2.85;1.80;;;;;21.10;96796.00;;;;8396962;28;20250;-65
2022/09/22 15:37:24;;;;;;;1.60;1.50;;;;;21.10;96796.00;;;;8396527;28;20262;-65
2022/09/22 15:41:34;;;;;;;2.05;1.48;;;;;20.90;96801.00;;;;8395890;28;20299;-65
2022/09/22 15:45:38;;;;;;;3.05;2.05;;;;;20.80;96797.00;;;;8396451;28;20219;-65
2022/09/22 15:49:42;;;;;;;1.30;1.30;;;;;20.90;96793.00;;;;8395150;28;20220;-65
2022/09/22 15:53:47;;;;;;;1.38;1.38;;;;;20.90;96794.00;;;;8395777;28;20234;-65
2022/09/22 15:57:53;;;;;;;1.30;1.30;;;;;20.70;96789.00;;;;8395496;28;20253;-65
2022/09/22 16:01:58;;;;;;;2.63;1.20;;;;;20.70;96792.00;;;;8395081;28;20219;-65
2022/09/22 16:06:05;;;;;;;1.60;1.50;;;;;20.40;96784.00;;;;8395102;28;20688;-66
2022/09/22 16:10:13;;;;;;;2.08;1.75;;;;;19.90;96788.00;;;;8417704;27;20231;-65
2022/09/22 16:14:17;;;;;;;2.45;2.10;;;;;19.40;96783.00;;;;8395224;28;20242;-65
2022/09/22 16:18:20;;;;;;;1.77;1.67;;;;;18.90;96777.00;;;;8394193;28;20247;-66
2022/09/22 16:22:32;;;;;;;1.52;1.42;;;;;18.50;96777.00;;;;8392022;28;20220;-66
2022/09/22 16:26:43;;;;;;;1.90;1.80;;;;;18.10;96778.00;;;;8393391;28;20223;-65
2022/09/22 16:30:46;;;;;;;1.88;1.77;;;;;17.60;96783.00;;;;8394272;28;20215;-66
2022/09/22 16:34:50;;;;;;;1.83;1.73;;;;;17.20;96769.00;;;;8393451;28;20722;-67
2022/09/22 16:39:01;;;;;;;1.90;1.80;;;;;16.90;96771.00;;;;8394308;28;20216;-65
2022/09/22 16:43:07;;;;;;;5.57;2.47;;;;;16.50;96774.00;;;;8395027;28;20220;-65
2022/09/22 16:47:11;;;;;;;2.33;2.13;;;;;16.20;96783.00;;;;8393667;28;20224;-65
2022/09/22 16:51:15;;;;;;;4.10;1.90;;;;;15.90;96773.00;;;;8394767;28;20224;-65
2022/09/22 16:55:18;;;;;;;2.45;1.90;;;;;15.70;96776.00;;;;8393976;28;20310;-66
2022/09/22 16:59:29;;;;;;;1.70;1.60;;;;;15.40;96775.00;;;;8395225;28;20228;-66
2022/09/22 17:03:32;;;;;;;1.83;1.73;;;;;15.20;96773.00;;;;8387259;28;20565;-65
2022/09/22 17:07:35;;;;;;;3.53;3.00;;;;;14.90;96774.00;;;;8394987;28;20219;-65
2022/09/22 17:11:40;;;;;;;5.75;3.22;;;;;14.50;96771.00;;;;8395062;28;20220;-65
2022/09/22 17:15:48;;;;;;;6.18;3.25;;;;;14.10;96762.00;;;;8393980;28;20254;-65
2022/09/22 17:19:51;;;;;;;2.90;2.65;;;;;13.80;96777.00;;;;8392958;28;20248;-65
2022/09/22 17:23:59;;;;;;;4.45;2.22;;;;;13.50;96765.00;;;;8394016;28;20539;-65
2022/09/22 17:28:02;;;;;;;2.47;2.38;;;;;13.00;96763.00;;;;8393372;28;20219;-65
2022/09/22 17:32:08;;;;;;;4.78;3.05;;;;;12.60;96763.00;;;;8394553;28;20230;-65
2022/09/22 17:36:25;;;;;;;2.70;2.50;;;;;12.30;96765.00;;;;8393709;28;20227;-66
2022/09/22 17:40:35;;;;;;;3.00;2.80;;;;;12.00;96766.00;;;;8393920;28;20641;-66
2022/09/22 17:44:38;;;;;;;6.20;3.42;;;;;11.80;96765.00;;;;8399003;28;20230;-65
2022/09/22 17:57:26;;;;;;;2.70;2.42;;;;;11.20;96766.00;;;;8400747;28;20225;-65
2022/09/22 18:01:29;;;;;;;5.43;2.78;;;;;11.00;96766.00;;;;8400040;28;20223;-66
2022/09/22 18:05:37;;;;;;;3.47;3.03;;;;;10.90;96770.00;;;;8400410;28;20317;-66
2022/09/22 18:09:49;;;;;;;3.47;3.15;;;;;10.80;96771.00;;;;8399934;28;20665;-66
2022/09/22 18:13:55;;;;;;;5.55;3.20;;;;;10.60;96767.00;;;;8398770;28;20249;-66
2022/09/22 18:17:58;;;;;;;10.65;5.85;;;;;10.60;96775.00;;;;8400204;28;20235;-65
2022/09/22 18:22:12;;;;;;;3.42;3.13;;;;;10.50;96774.00;;;;8398739;28;20228;-66
2022/09/22 18:26:16;;;;;;;6.85;3.30;;;;;10.40;96775.00;;;;8392188;28;20307;-66
2022/09/22 18:30:19;;;;;;;3.90;3.55;;;;;10.30;96777.00;;;;8396501;28;20633;-66
2022/09/22 18:34:30;;;;;;;3.65;3.22;;;;;10.10;96782.00;;;;8398699;28;20252;-66
2022/09/22 18:38:35;;;;;;;4.75;3.47;;;;;9.90;96786.00;;;;8398109;28;20541;-66
2022/09/22 18:42:44;;;;;;;3.40;3.10;;;;;9.70;96787.00;;;;8397769;28;20269;-66
2022/09/22 18:46:48;;;;;;;6.03;4.85;;;;;9.50;96792.00;;;;8398413;28;20223;-66
2022/09/22 18:50:52;;;;;;;7.90;4.30;;;;;9.50;96786.00;;;;8398610;28;20223;-67
2022/09/22 18:55:08;;;;;;;3.50;3.20;;;;;9.30;96781.00;;;;8397698;28;20665;-67
2022/09/22 18:59:14;;;;;;;4.97;4.37;;;;;9.20;96790.00;;;;8398378;28;20256;-69
2022/09/22 19:03:17;;;;;;;7.13;4.67;;;;;9.10;96793.00;;;;8397077;28;20220;-67
2022/09/22 19:07:41;;;;;;;7.50;5.40;;;;;9.00;96787.00;;;;8397163;28;20270;-67
2022/09/22 19:11:49;;;;;;;8.53;4.77;;;;;8.80;96786.00;;;;8394770;28;20308;-67
2022/09/22 19:15:59;;;;;;;13.27;5.67;;;;;8.70;96788.00;;;;8393278;28;20273;-66
2022/09/22 19:20:04;;;;;;;5.88;4.82;;;;;8.60;96799.00;;;;8397312;28;20211;-67
2022/09/22 19:24:09;;;;;;;6.93;5.20;;;;;8.50;96789.00;;;;8396991;28;20247;-67
2022/09/22 19:28:14;;;;;;;6.23;5.10;;;;;8.40;96782.00;;;;8397010;28;22218;-67
2022/09/22 19:32:17;;;;;;;8.87;5.70;;;;;8.30;96781.00;;;;8397033;28;20219;-67
2022/09/22 19:36:27;;;;;;;7.73;5.47;;;;;8.20;96780.00;;;;8400816;28;20241;-67
2022/09/22 19:40:36;;;;;;;11.03;6.57;;;;;8.10;96784.00;;;;8414408;28;20216;-67
2022/09/22 19:44:40;;;;;;;7.80;5.43;;;;;8.00;96774.00;;;;8396069;28;20652;-67
2022/09/22 19:48:44;;;;;;;8.00;5.50;;;;;7.90;96770.00;;;;8396229;28;20235;-66
2022/09/22 19:52:47;;;;;;;8.50;5.00;;;;;7.90;96761.00;;;;8396764;28;20216;-66
2022/09/22 19:56:58;;;;;;;16.07;6.40;;;;;7.80;96760.00;;;;8395565;28;20228;-67
2022/09/22 20:01:02;;;;;;;14.87;6.83;;;;;7.70;96755.00;;;;8395582;28;20219;-67
2022/09/22 20:05:17;;;;;;;7.57;5.07;;;;;7.60;96762.00;;;;8394679;28;20311;-67
2022/09/22 20:09:20;;;;;;;14.77;7.60;;;;;7.60;96761.00;;;;8401170;28;20217;-66
2022/09/22 20:18:13;;;;;;;12.43;5.60;;;;;7.60;96767.00;;;;8393398;28;20235;-67
2022/09/22 20:22:22;;;;;;;7.97;6.00;;;;;7.50;96763.00;;;;8385238;28;20215;-66
2022/09/22 20:26:33;;;;;;;10.60;6.27;;;;;7.50;96763.00;;;;8393170;28;20219;-67
2022/09/22 20:30:37;;;;;;;11.97;6.73;;;;;7.50;96759.00;;;;8395250;28;20212;-67
2022/09/22 20:34:49;;;;;;;10.20;6.90;;;;;7.40;96759.00;;;;8395012;28;20226;-67
2022/09/22 20:38:52;;;;;;;11.37;6.67;;;;;7.30;96759.00;;;;8394442;28;20223;-67
2022/09/22 20:43:03;;;;;;;11.13;6.90;;;;;7.30;96757.00;;;;8395432;28;20222;-66
2022/09/22 20:47:12;;;;;;;14.90;7.67;;;;;7.20;96755.00;;;;8417208;28;20224;-67
2022/09/22 20:51:24;;;;;;;14.20;7.37;;;;;7.20;96748.00;;;;8394463;28;20223;-66
2022/09/22 20:55:27;;;;;;;12.77;7.50;;;;;7.10;96756.00;;;;8394165;28;20231;-67
2022/09/22 20:59:37;;;;;;;13.73;7.27;;;;;7.00;96754.00;;;;8394476;28;20223;-67
2022/09/22 21:03:41;;;;;;;9.27;6.73;;;;;7.00;96756.00;;;;8393081;28;20219;-67
2022/09/22 21:10:33;;;;;;;13.90;8.07;;;;;6.90;96757.00;;;;8384513;28;20692;-67
2022/09/22 21:12:15;;;;;;;10.93;7.77;;;;;6.80;96754.00;;;;8394384;28;20629;-67
2022/09/22 21:16:18;;;;;;;11.43;6.90;;;;;6.70;96756.00;;;;8396552;28;20549;-67
2022/09/22 21:20:22;;;;;;;12.33;7.53;;;;;6.60;96751.00;;;;8404769;28;20234;-67
2022/09/22 21:24:33;;;;;;;15.40;8.40;;;;;6.50;96745.00;;;;8405276;28;20530;-68
2022/09/22 21:28:37;;;;;;;13.37;8.17;;;;;6.50;96746.00;;;;8404918;28;20290;-67
2022/09/22 21:32:40;;;;;;;12.10;7.30;;;;;6.50;96749.00;;;;8404907;28;20226;-67
2022/09/22 21:36:44;;;;;;;9.37;7.40;;;;;6.40;96748.00;;;;8402318;28;20226;-67